CCA1386 ZGGG-ZBAA
Flight info
| Callsign | CCA1386 |
|---|---|
| Flight time | N/A |
| Altitude | 41100 |
| Route | MIKIP9 MIKIP A461 BUBDA W56 DUGEB DUGEB6J |
| Aircraft | A359/H-SDE3FGHIJ1J2J3J4J5M1P2RWYZ/LB1D1 |
Departure
| Time | N/A |
|---|---|
| Airport | Guangzhou Baiyun International Airport (ZGGG) |
Arrival
| Time | 2026-05-05 17:07 |
|---|---|
| Airport | Beijing Capital International Airport (ZBAA) |
| Time | Latitude | Longitude | Altitude | Speed | Heading |
|---|---|---|---|---|---|
| 2026-05-05 16:23 | 36.71687 | 114.94891 | 40835 ft | 471 kts | 18° |
| 2026-05-05 16:23 | 36.80593 | 115.00083 | 40825 ft | 471 kts | 18° |
| 2026-05-05 16:24 | 36.86538 | 115.03557 | 40829 ft | 472 kts | 19° |
| 2026-05-05 16:25 | 36.95455 | 115.08781 | 40821 ft | 472 kts | 19° |
| 2026-05-05 16:25 | 37.04372 | 115.14019 | 40816 ft | 472 kts | 19° |
| 2026-05-05 16:26 | 37.16235 | 115.21008 | 40812 ft | 473 kts | 19° |
| 2026-05-05 16:27 | 37.22187 | 115.24524 | 40818 ft | 473 kts | 19° |
| 2026-05-05 16:27 | 37.28143 | 115.28048 | 40809 ft | 473 kts | 19° |
| 2026-05-05 16:28 | 37.34094 | 115.31577 | 40815 ft | 473 kts | 19° |
| 2026-05-05 16:28 | 37.40049 | 115.35112 | 40806 ft | 473 kts | 19° |
| 2026-05-05 16:29 | 37.46004 | 115.38655 | 40812 ft | 473 kts | 19° |
| 2026-05-05 16:29 | 37.51953 | 115.42200 | 40803 ft | 473 kts | 19° |
| 2026-05-05 16:30 | 37.57907 | 115.45755 | 40806 ft | 473 kts | 19° |
| 2026-05-05 16:30 | 37.63815 | 115.49287 | 40799 ft | 473 kts | 19° |
| 2026-05-05 16:31 | 37.69762 | 115.52849 | 40804 ft | 473 kts | 19° |
| 2026-05-05 16:31 | 37.75724 | 115.56357 | 40796 ft | 470 kts | 15° |
| 2026-05-05 16:32 | 37.80933 | 115.58189 | 40797 ft | 458 kts | 2° |
| 2026-05-05 16:32 | 37.88238 | 115.58349 | 40794 ft | 450 kts | 352° |
| 2026-05-05 16:33 | 37.94489 | 115.57888 | 40788 ft | 450 kts | 351° |
| 2026-05-05 16:33 | 38.00752 | 115.57371 | 40789 ft | 451 kts | 351° |
| 2026-05-05 16:34 | 38.07014 | 115.56880 | 40794 ft | 452 kts | 352° |
| 2026-05-05 16:34 | 38.13308 | 115.56492 | 40784 ft | 453 kts | 353° |
| 2026-05-05 16:35 | 38.18544 | 115.56180 | 40784 ft | 453 kts | 352° |
| 2026-05-05 16:35 | 38.24871 | 115.56183 | 40781 ft | 459 kts | 1° |
| 2026-05-05 16:36 | 38.31104 | 115.58297 | 40786 ft | 472 kts | 18° |
| 2026-05-05 16:36 | 38.37073 | 115.61851 | 40778 ft | 475 kts | 20° |
| 2026-05-05 16:37 | 38.42985 | 115.65634 | 40783 ft | 476 kts | 21° |
| 2026-05-05 16:37 | 38.48901 | 115.69425 | 40783 ft | 475 kts | 20° |
| 2026-05-05 16:38 | 38.54819 | 115.73181 | 40784 ft | 475 kts | 20° |
| 2026-05-05 16:38 | 38.60743 | 115.76927 | 40781 ft | 475 kts | 20° |
| 2026-05-05 16:39 | 38.66585 | 115.80982 | 40781 ft | 482 kts | 29° |
| 2026-05-05 16:39 | 38.71846 | 115.86410 | 40786 ft | 487 kts | 34° |
| 2026-05-05 16:40 | 38.76989 | 115.91966 | 40785 ft | 487 kts | 34° |
| 2026-05-05 16:40 | 38.82151 | 115.97543 | 40082 ft | 484 kts | 34° |
| 2026-05-05 16:41 | 38.84732 | 116.00330 | 39377 ft | 485 kts | 34° |
| 2026-05-05 16:41 | 38.87309 | 116.03117 | 38751 ft | 485 kts | 34° |
| 2026-05-05 16:41 | 38.89891 | 116.05911 | 38090 ft | 483 kts | 34° |
| 2026-05-05 16:41 | 38.92465 | 116.08698 | 37286 ft | 483 kts | 34° |
| 2026-05-05 16:42 | 38.95028 | 116.11475 | 36493 ft | 482 kts | 34° |
| 2026-05-05 16:42 | 38.97595 | 116.14251 | 35708 ft | 481 kts | 34° |
| 2026-05-05 16:42 | 39.00308 | 116.16704 | 34913 ft | 474 kts | 25° |
| 2026-05-05 16:42 | 39.02644 | 116.18086 | 34287 ft | 468 kts | 15° |
| 2026-05-05 16:43 | 39.05780 | 116.19046 | 33434 ft | 462 kts | 4° |
| 2026-05-05 16:43 | 39.08978 | 116.19125 | 32392 ft | 461 kts | 353° |
| 2026-05-05 16:43 | 39.12188 | 116.18692 | 31257 ft | 465 kts | 351° |
| 2026-05-05 16:43 | 39.15420 | 116.18183 | 30246 ft | 469 kts | 351° |
| 2026-05-05 16:44 | 39.18639 | 116.17680 | 29558 ft | 464 kts | 351° |
| 2026-05-05 16:44 | 39.21829 | 116.17189 | 28892 ft | 458 kts | 351° |
| 2026-05-05 16:44 | 39.24975 | 116.16708 | 28282 ft | 452 kts | 352° |
| 2026-05-05 16:44 | 39.28081 | 116.16235 | 27675 ft | 446 kts | 351° |
| 2026-05-05 16:45 | 39.31144 | 116.15769 | 27078 ft | 441 kts | 351° |
| 2026-05-05 16:45 | 39.34180 | 116.15308 | 26490 ft | 436 kts | 351° |
| 2026-05-05 16:45 | 39.37177 | 116.14852 | 25895 ft | 432 kts | 351° |
| 2026-05-05 16:45 | 39.40151 | 116.14400 | 25313 ft | 428 kts | 351° |
| 2026-05-05 16:46 | 39.43101 | 116.13951 | 24735 ft | 425 kts | 351° |
| 2026-05-05 16:46 | 39.46029 | 116.13505 | 24167 ft | 422 kts | 351° |
| 2026-05-05 16:46 | 39.48936 | 116.13061 | 23593 ft | 420 kts | 351° |
| 2026-05-05 16:46 | 39.51832 | 116.12620 | 22933 ft | 418 kts | 351° |
| 2026-05-05 16:47 | 39.54676 | 116.12188 | 22275 ft | 416 kts | 352° |
| 2026-05-05 16:47 | 39.57573 | 116.11748 | 21634 ft | 412 kts | 351° |
| 2026-05-05 16:47 | 39.60372 | 116.11316 | 21015 ft | 408 kts | 351° |
| 2026-05-05 16:47 | 39.63186 | 116.10883 | 20387 ft | 405 kts | 351° |
| 2026-05-05 16:48 | 39.65971 | 116.10455 | 19760 ft | 403 kts | 352° |
| 2026-05-05 16:48 | 39.68748 | 116.10028 | 19127 ft | 400 kts | 352° |
| 2026-05-05 16:48 | 39.71549 | 116.09596 | 18486 ft | 400 kts | 352° |
| 2026-05-05 16:48 | 39.74269 | 116.09178 | 17832 ft | 400 kts | 352° |
| 2026-05-05 16:49 | 39.77034 | 116.08752 | 17094 ft | 400 kts | 352° |
| 2026-05-05 16:49 | 39.79797 | 116.08326 | 16382 ft | 400 kts | 352° |
| 2026-05-05 16:49 | 39.82545 | 116.07903 | 15740 ft | 397 kts | 352° |
| 2026-05-05 16:49 | 39.85286 | 116.07488 | 15100 ft | 395 kts | 352° |
| 2026-05-05 16:50 | 39.88003 | 116.07068 | 14474 ft | 391 kts | 352° |
| 2026-05-05 16:50 | 39.90691 | 116.06651 | 13853 ft | 387 kts | 352° |
| 2026-05-05 16:50 | 39.93355 | 116.06237 | 13204 ft | 384 kts | 352° |
| 2026-05-05 16:50 | 39.95988 | 116.05829 | 12571 ft | 379 kts | 351° |
| 2026-05-05 16:51 | 39.98597 | 116.05425 | 11953 ft | 376 kts | 351° |
| 2026-05-05 16:51 | 40.01181 | 116.05025 | 11350 ft | 372 kts | 351° |
| 2026-05-05 16:51 | 40.03710 | 116.04633 | 11139 ft | 357 kts | 351° |
| 2026-05-05 16:51 | 40.06117 | 116.04268 | 11008 ft | 340 kts | 351° |
| 2026-05-05 16:52 | 40.08413 | 116.03910 | 10879 ft | 324 kts | 351° |
| 2026-05-05 16:52 | 40.10605 | 116.03565 | 10750 ft | 310 kts | 350° |
| 2026-05-05 16:52 | 40.12700 | 116.03238 | 10621 ft | 298 kts | 350° |
| 2026-05-05 16:52 | 40.14736 | 116.02919 | 10507 ft | 293 kts | 350° |
| 2026-05-05 16:53 | 40.16768 | 116.02599 | 10334 ft | 294 kts | 350° |
| 2026-05-05 16:53 | 40.18785 | 116.02283 | 10146 ft | 288 kts | 350° |
| 2026-05-05 16:53 | 40.20766 | 116.02083 | 9915 ft | 285 kts | 358° |
| 2026-05-05 16:53 | 40.22705 | 116.02649 | 9732 ft | 298 kts | 21° |
| 2026-05-05 16:54 | 40.24556 | 116.03906 | 9671 ft | 302 kts | 27° |
| 2026-05-05 16:54 | 40.26378 | 116.05275 | 9578 ft | 301 kts | 27° |
| 2026-05-05 16:54 | 40.28200 | 116.06642 | 9492 ft | 302 kts | 27° |
| 2026-05-05 16:54 | 40.30022 | 116.08001 | 9404 ft | 302 kts | 26° |
| 2026-05-05 16:55 | 40.31847 | 116.09354 | 9316 ft | 301 kts | 26° |
| 2026-05-05 16:55 | 40.33672 | 116.10706 | 9219 ft | 301 kts | 26° |
| 2026-05-05 16:55 | 40.35496 | 116.12056 | 9139 ft | 301 kts | 26° |
| 2026-05-05 16:55 | 40.37321 | 116.13406 | 9040 ft | 301 kts | 26° |
| 2026-05-05 16:56 | 40.39055 | 116.14953 | 8949 ft | 305 kts | 40° |
| 2026-05-05 16:56 | 40.40207 | 116.17286 | 8870 ft | 310 kts | 70° |
| 2026-05-05 16:56 | 40.40516 | 116.20066 | 8552 ft | 309 kts | 89° |
| 2026-05-05 16:56 | 40.40510 | 116.22876 | 8244 ft | 308 kts | 91° |
| 2026-05-05 16:57 | 40.40491 | 116.25686 | 7976 ft | 308 kts | 90° |
| 2026-05-05 16:57 | 40.40490 | 116.28485 | 7757 ft | 302 kts | 90° |
| 2026-05-05 16:57 | 40.40500 | 116.31192 | 7574 ft | 292 kts | 90° |
| 2026-05-05 16:57 | 40.40514 | 116.33805 | 7415 ft | 282 kts | 89° |
| 2026-05-05 16:58 | 40.40530 | 116.36336 | 7267 ft | 273 kts | 90° |
| 2026-05-05 16:58 | 40.40547 | 116.38807 | 7034 ft | 267 kts | 90° |
| 2026-05-05 16:58 | 40.40566 | 116.41223 | 6665 ft | 264 kts | 90° |
| 2026-05-05 16:58 | 40.40586 | 116.43616 | 6416 ft | 262 kts | 90° |
| 2026-05-05 16:59 | 40.40604 | 116.45994 | 6150 ft | 260 kts | 90° |
| 2026-05-05 16:59 | 40.40623 | 116.48351 | 5942 ft | 255 kts | 90° |
| 2026-05-05 16:59 | 40.40638 | 116.50637 | 5822 ft | 246 kts | 90° |
| 2026-05-05 16:59 | 40.40371 | 116.52785 | 5642 ft | 235 kts | 120° |
| 2026-05-05 17:00 | 40.39289 | 116.54231 | 5479 ft | 215 kts | 160° |
| 2026-05-05 17:00 | 40.37937 | 116.54818 | 5351 ft | 203 kts | 174° |
| 2026-05-05 17:00 | 40.36564 | 116.55095 | 5222 ft | 198 kts | 178° |
| 2026-05-05 17:00 | 40.35200 | 116.55313 | 5081 ft | 197 kts | 178° |
| 2026-05-05 17:01 | 40.33841 | 116.55535 | 4872 ft | 196 kts | 178° |
| 2026-05-05 17:01 | 40.32487 | 116.55756 | 4618 ft | 196 kts | 178° |
| 2026-05-05 17:01 | 40.31132 | 116.55969 | 4333 ft | 197 kts | 177° |
| 2026-05-05 17:01 | 40.29768 | 116.56186 | 4039 ft | 197 kts | 177° |
| 2026-05-05 17:02 | 40.28401 | 116.56403 | 3768 ft | 198 kts | 176° |
| 2026-05-05 17:02 | 40.27033 | 116.56621 | 3481 ft | 198 kts | 176° |
| 2026-05-05 17:02 | 40.25668 | 116.56837 | 3229 ft | 197 kts | 176° |
| 2026-05-05 17:02 | 40.24337 | 116.57049 | 2967 ft | 188 kts | 176° |
| 2026-05-05 17:03 | 40.23078 | 116.57250 | 2761 ft | 179 kts | 176° |
| 2026-05-05 17:03 | 40.21840 | 116.57444 | 2519 ft | 179 kts | 176° |
| 2026-05-05 17:03 | 40.20635 | 116.57636 | 2269 ft | 168 kts | 176° |
| 2026-05-05 17:03 | 40.19508 | 116.57815 | 2059 ft | 159 kts | 176° |
| 2026-05-05 17:04 | 40.18414 | 116.57987 | 1856 ft | 157 kts | 176° |
| 2026-05-05 17:04 | 40.17365 | 116.58154 | 1647 ft | 146 kts | 176° |
| 2026-05-05 17:04 | 40.16395 | 116.58308 | 1464 ft | 137 kts | 176° |
| 2026-05-05 17:04 | 40.15476 | 116.58452 | 1277 ft | 128 kts | 176° |
| 2026-05-05 17:05 | 40.14617 | 116.58587 | 1126 ft | 126 kts | 176° |
| 2026-05-05 17:05 | 40.13734 | 116.58726 | 978 ft | 127 kts | 174° |
| 2026-05-05 17:05 | 40.12870 | 116.58862 | 852 ft | 127 kts | 174° |
| 2026-05-05 17:05 | 40.11992 | 116.58992 | 706 ft | 127 kts | 174° |
| 2026-05-05 17:06 | 40.11112 | 116.59134 | 571 ft | 128 kts | 172° |
| 2026-05-05 17:06 | 40.10221 | 116.59285 | 410 ft | 130 kts | 173° |
| 2026-05-05 17:06 | 40.09331 | 116.59423 | 261 ft | 129 kts | 173° |
| 2026-05-05 17:06 | 40.08439 | 116.59564 | 131 ft | 126 kts | 173° |
| 2026-05-05 17:07 | 40.07726 | 116.59675 | 127 ft | 81 kts | 173° |
| 2026-05-05 17:07 | 40.07325 | 116.59738 | 126 ft | 35 kts | 173° |
| 2026-05-05 17:07 | 40.07168 | 116.59762 | 127 ft | 21 kts | 173° |
| 2026-05-05 17:07 | 40.07024 | 116.59809 | 126 ft | 22 kts | 157° |
| 2026-05-05 17:08 | 40.06892 | 116.59909 | 124 ft | 22 kts | 143° |
| 2026-05-05 17:08 | 40.06788 | 116.60010 | 124 ft | 16 kts | 143° |
| 2026-05-05 17:08 | 40.06680 | 116.60072 | 128 ft | 18 kts | 170° |
| 2026-05-05 17:08 | 40.06545 | 116.60095 | 127 ft | 19 kts | 174° |
| 2026-05-05 17:09 | 40.06424 | 116.60113 | 127 ft | 16 kts | 173° |
| 2026-05-05 17:09 | 40.06335 | 116.60127 | 126 ft | 10 kts | 173° |
| 2026-05-05 17:09 | 40.06258 | 116.60139 | 127 ft | 13 kts | 173° |
| 2026-05-05 17:09 | 40.06186 | 116.60169 | 126 ft | 9 kts | 130° |
| 2026-05-05 17:10 | 40.06181 | 116.60259 | 128 ft | 12 kts | 84° |
| 2026-05-05 17:10 | 40.06191 | 116.60380 | 129 ft | 15 kts | 83° |
| 2026-05-05 17:10 | 40.06204 | 116.60485 | 128 ft | 10 kts | 69° |
| 2026-05-05 17:10 | 40.06266 | 116.60515 | 127 ft | 12 kts | 0° |
| 2026-05-05 17:11 | 40.06333 | 116.60508 | 127 ft | 11 kts | 353° |
| 2026-05-05 17:11 | 40.06382 | 116.60506 | 127 ft | 4 kts | 17° |
| 2026-05-05 17:11 | 40.06402 | 116.60543 | 127 ft | 7 kts | 66° |
| 2026-05-05 17:11 | 40.06411 | 116.60595 | 125 ft | 4 kts | 83° |
| 2026-05-05 17:12 | 40.06412 | 116.60605 | 126 ft | 0 kts | 83° |
| 2026-05-05 17:12 | 40.06412 | 116.60606 | 126 ft | 1 kts | 83° |
| 2026-05-05 17:12 | 40.06414 | 116.60623 | 127 ft | 0 kts | 83° |
| 2026-05-05 17:12 | 40.06414 | 116.60624 | 127 ft | 0 kts | 83° |
| 2026-05-05 17:18 | 40.06414 | 116.60621 | 127 ft | 0 kts | 83° |